Time;durP1;ratioP1;P1;durP2;ratioP2;P2;SDS_P1;SDS_P2;PMS_P1;PMS_P2;Temp;Humidity;BMP_temperature;BMP_pressure;BME280_temperature;BME280_humidity;BME280_pressure;Samples;Min_cycle;Max_cycle;Signal;HPM_P1;HPM_P2
2021/04/21 00:27:44;;;;;;;19.10;3.30;;;;;;;;;;4447891;28;20099;-67
2021/04/21 00:30:29;;;;;;;12.32;3.58;;;;;;;;;;4138888;34;20127;-69
2021/04/21 00:33:01;;;;;;;13.27;3.37;;;;;;;;;;4127788;34;20110;-65
2021/04/21 00:35:40;;;;;;;19.27;4.47;;;;;;;;;;4136341;34;20131;-68
2021/04/21 00:38:19;;;;;;;14.10;3.15;;;;;;;;;;4120526;34;20095;-64
2021/04/21 00:40:58;;;;;;;12.45;3.30;;;;;;;;;;4129543;34;20210;-68
2021/04/21 00:43:42;;;;;;;16.58;3.37;;;;;;;;;;4134559;34;20197;-65
2021/04/21 00:46:38;;;;;;;20.40;3.28;;;;;;;;;;4134880;34;20690;-63
2021/04/21 00:49:25;;;;;;;10.15;3.03;;;;;;;;;;4130930;34;20103;-65
2021/04/21 00:52:45;;;;;;;7.28;3.08;;;;;;;;;;4139733;34;20208;-64
2021/04/21 00:55:27;;;;;;;8.55;3.50;;;;;;;;;;4115992;34;20218;-64
2021/04/21 00:58:12;;;;;;;13.20;3.13;;;;;;;;;;4145995;34;20112;-64
2021/04/21 01:00:47;;;;;;;15.55;3.08;;;;;;;;;;4121083;34;20212;-64
2021/04/21 01:03:25;;;;;;;10.02;3.15;;;;;;;;;;4134228;34;20107;-67
2021/04/21 01:06:14;;;;;;;6.80;2.90;;;;;;;;;;4142045;34;20604;-69
2021/04/21 01:08:59;;;;;;;20.52;3.72;;;;;;;;;;4139316;34;20424;-67
2021/04/21 01:11:55;;;;;;;15.63;4.05;;;;;;;;;;4122218;34;20115;-65
2021/04/21 01:14:35;;;;;;;18.12;4.15;;;;;;;;;;4124418;34;20099;-67
2021/04/21 01:17:12;;;;;;;25.73;4.03;;;;;;;;;;4126974;34;20211;-68
2021/04/21 01:19:58;;;;;;;30.05;5.00;;;;;;;;;;4117335;34;20127;-64
2021/04/21 01:22:30;;;;;;;29.15;4.47;;;;;;;;;;4135931;34;20608;-63
2021/04/21 01:25:15;;;;;;;29.10;3.50;;;;;;;;;;4152626;34;20099;-63
2021/04/21 01:27:49;;;;;;;19.05;3.22;;;;;;;;;;4148404;34;20326;-69
2021/04/21 01:30:24;;;;;;;19.33;3.75;;;;;;;;;;4145479;34;20103;-64
2021/04/21 01:33:09;;;;;;;28.52;3.97;;;;;;;;;;4146292;34;20196;-68
2021/04/21 01:35:46;;;;;;;18.52;4.37;;;;;;;;;;4151856;34;20102;-68
2021/04/21 01:38:24;;;;;;;21.08;4.47;;;;;;;;;;4133646;34;20613;-68
2021/04/21 01:41:04;;;;;;;42.35;6.43;;;;;;;;;;4122773;34;20106;-65
2021/04/21 01:43:49;;;;;;;36.55;5.10;;;;;;;;;;4132867;34;20119;-68
2021/04/21 01:46:21;;;;;;;137.07;10.98;;;;;;;;;;4134507;34;20135;-64
2021/04/21 01:48:54;;;;;;;31.98;4.68;;;;;;;;;;4136406;34;20119;-65
2021/04/21 01:51:31;;;;;;;15.05;3.42;;;;;;;;;;4119658;34;20154;-65
2021/04/21 01:54:44;;;;;;;8.27;3.00;;;;;;;;;;4132859;34;20096;-64
2021/04/21 01:57:34;;;;;;;9.93;3.10;;;;;;;;;;4142596;34;20587;-69
2021/04/21 02:00:09;;;;;;;24.48;4.20;;;;;;;;;;4132106;34;20507;-63
2021/04/21 02:02:44;;;;;;;12.30;3.83;;;;;;;;;;4149864;34;20119;-66
2021/04/21 02:05:39;;;;;;;19.85;4.30;;;;;;;;;;4126209;34;20102;-61
2021/04/21 02:08:37;;;;;;;10.82;2.85;;;;;;;;;;4116831;34;20117;-68
2021/04/21 02:11:21;;;;;;;12.98;3.58;;;;;;;;;;4121319;34;20116;-72
2021/04/21 02:14:01;;;;;;;16.65;4.15;;;;;;;;;;4119672;34;20514;-62
2021/04/21 02:16:42;;;;;;;9.60;3.45;;;;;;;;;;4139317;34;20087;-61
2021/04/21 02:19:12;;;;;;;13.70;2.97;;;;;;;;;;4140079;34;20154;-68
2021/04/21 02:22:10;;;;;;;8.35;3.17;;;;;;;;;;4151806;34;20113;-63
2021/04/21 02:24:54;;;;;;;11.77;3.35;;;;;;;;;;4151700;34;20118;-62
2021/04/21 02:27:51;;;;;;;10.13;3.28;;;;;;;;;;4150768;34;20167;-66
2021/04/21 02:30:37;;;;;;;12.80;3.53;;;;;;;;;;4137234;34;20499;-63
2021/04/21 02:33:31;;;;;;;21.70;5.35;;;;;;;;;;4151297;34;20117;-63
2021/04/21 02:36:26;;;;;;;18.92;3.60;;;;;;;;;;4149358;34;20122;-63
2021/04/21 02:39:26;;;;;;;20.05;3.90;;;;;;;;;;4136628;34;20094;-65
2021/04/21 02:42:05;;;;;;;15.07;3.37;;;;;;;;;;4134691;34;20107;-70
2021/04/21 02:44:36;;;;;;;12.48;3.37;;;;;;;;;;4136562;34;20174;-63
2021/04/21 02:47:48;;;;;;;9.48;2.75;;;;;;;;;;4135742;34;20598;-64
2021/04/21 02:50:19;;;;;;;10.80;2.30;;;;;;;;;;4123961;34;20107;-62
2021/04/21 02:53:06;;;;;;;12.25;1.67;;;;;;;;;;4115268;34;20091;-63
2021/04/21 02:55:54;;;;;;;4.90;2.17;;;;;;;;;;4136428;34;20186;-63
2021/04/21 02:58:42;;;;;;;6.80;2.65;;;;;;;;;;4151200;34;20191;-63
2021/04/21 03:01:30;;;;;;;11.20;3.83;;;;;;;;;;4126760;34;20458;-69
2021/04/21 03:04:16;;;;;;;10.95;4.32;;;;;;;;;;4136578;34;20096;-64
2021/04/21 03:06:55;;;;;;;18.90;3.78;;;;;;;;;;4137666;34;20479;-65
2021/04/21 03:09:51;;;;;;;32.60;4.80;;;;;;;;;;4114315;34;20190;-64
2021/04/21 03:12:24;;;;;;;12.15;4.10;;;;;;;;;;4124346;34;20114;-70
2021/04/21 03:14:58;;;;;;;15.27;4.47;;;;;;;;;;4125676;34;20188;-64
2021/04/21 03:17:32;;;;;;;13.65;3.92;;;;;;;;;;4137775;34;20115;-61
2021/04/21 03:20:08;;;;;;;17.27;4.15;;;;;;;;;;4130432;34;20113;-63
2021/04/21 03:22:38;;;;;;;8.68;3.72;;;;;;;;;;4138766;34;20119;-62
2021/04/21 03:25:29;;;;;;;9.32;4.25;;;;;;;;;;4138684;34;20099;-66
2021/04/21 03:28:13;;;;;;;17.40;4.72;;;;;;;;;;4145515;34;20111;-63
2021/04/21 03:30:45;;;;;;;17.98;5.68;;;;;;;;;;4139441;34;20107;-67
2021/04/21 03:33:17;;;;;;;14.00;4.25;;;;;;;;;;4127466;34;20467;-64
2021/04/21 03:35:47;;;;;;;18.73;4.68;;;;;;;;;;4127737;34;20115;-64
2021/04/21 03:38:25;;;;;;;14.32;4.90;;;;;;;;;;4127312;34;20460;-64
2021/04/21 03:41:12;;;;;;;11.18;5.50;;;;;;;;;;4134658;34;20114;-70
2021/04/21 03:43:39;;;;;;;14.70;4.53;;;;;;;;;;4130540;34;21406;-66
2021/04/21 03:46:08;;;;;;;10.10;4.45;;;;;;;;;;4125530;34;20301;-63
2021/04/21 03:48:37;;;;;;;25.50;5.53;;;;;;;;;;4127028;34;20126;-62
2021/04/21 03:51:09;;;;;;;14.20;5.43;;;;;;;;;;4125288;34;20537;-61
2021/04/21 03:53:51;;;;;;;20.83;6.47;;;;;;;;;;4144108;34;20107;-65
2021/04/21 03:56:25;;;;;;;17.17;6.25;;;;;;;;;;4138527;34;20124;-65
2021/04/21 03:58:55;;;;;;;16.02;5.72;;;;;;;;;;4136109;34;20207;-66
2021/04/21 04:01:25;;;;;;;22.50;6.37;;;;;;;;;;4123958;34;20523;-65
2021/04/21 04:04:03;;;;;;;23.95;6.30;;;;;;;;;;4143505;34;20125;-65
2021/04/21 04:06:50;;;;;;;105.65;11.15;;;;;;;;;;4141768;34;20099;-66
2021/04/21 04:09:22;;;;;;;32.40;8.13;;;;;;;;;;4134181;34;20112;-65
2021/04/21 04:11:56;;;;;;;55.65;9.73;;;;;;;;;;4144424;34;20133;-63
2021/04/21 04:14:35;;;;;;;31.42;7.07;;;;;;;;;;4125364;34;20535;-66
2021/04/21 04:17:04;;;;;;;40.78;8.30;;;;;;;;;;4137139;34;20107;-63
2021/04/21 04:19:32;;;;;;;14.80;6.28;;;;;;;;;;4151128;34;20103;-65
2021/04/21 04:21:58;;;;;;;20.17;6.43;;;;;;;;;;4138509;34;20203;-65
2021/04/21 04:24:25;;;;;;;14.65;6.82;;;;;;;;;;4150953;34;20202;-66
2021/04/21 04:26:53;;;;;;;13.18;7.03;;;;;;;;;;4134396;34;20118;-64
2021/04/21 04:29:22;;;;;;;12.75;6.53;;;;;;;;;;4114021;34;20182;-66
2021/04/21 04:31:50;;;;;;;12.93;7.55;;;;;;;;;;4124832;34;20123;-64
2021/04/21 04:34:20;;;;;;;14.35;7.15;;;;;;;;;;4138206;34;20109;-66
2021/04/21 04:36:47;;;;;;;15.98;7.45;;;;;;;;;;4108702;34;20543;-66
2021/04/21 04:39:21;;;;;;;30.52;9.63;;;;;;;;;;4137383;34;20095;-65
2021/04/21 04:41:49;;;;;;;16.60;8.02;;;;;;;;;;4136667;34;20138;-66
2021/04/21 04:44:17;;;;;;;29.27;9.55;;;;;;;;;;4113697;34;20103;-65
2021/04/21 04:46:50;;;;;;;24.33;8.88;;;;;;;;;;4124967;34;20626;-64
2021/04/21 04:49:23;;;;;;;11.10;8.13;;;;;;;;;;4114066;34;20200;-64
2021/04/21 04:51:50;;;;;;;69.53;11.70;;;;;;;;;;4113522;34;20088;-67
2021/04/21 04:54:18;;;;;;;32.47;10.30;;;;;;;;;;4124983;34;20127;-65
2021/04/21 04:56:48;;;;;;;25.37;8.13;;;;;;;;;;4124761;34;20139;-65
2021/04/21 04:59:17;;;;;;;20.42;8.23;;;;;;;;;;4135868;34;20451;-66
2021/04/21 05:02:00;;;;;;;25.05;10.30;;;;;;;;;;4124963;34;20246;-66
2021/04/21 05:04:39;;;;;;;34.80;9.80;;;;;;;;;;4136970;34;20107;-65
2021/04/21 05:07:06;;;;;;;22.40;11.00;;;;;;;;;;4125027;34;20127;-66
2021/04/21 05:09:41;;;;;;;24.17;10.63;;;;;;;;;;4135763;34;20118;-65
2021/04/21 05:12:12;;;;;;;;;;;;;;;;;;4137544;34;20123;-66
2021/04/21 05:14:40;;;;;;;30.50;11.95;;;;;;;;;;4136921;34;19995;-64
2021/04/21 05:17:44;;;;;;;15.80;11.57;;;;;;;;;;4136793;34;20107;-67
2021/04/21 05:20:28;;;;;;;21.00;13.23;;;;;;;;;;4136961;34;20184;-63
2021/04/21 05:23:28;;;;;;;27.75;13.15;;;;;;;;;;4124790;34;20222;-64
2021/04/21 05:26:37;;;;;;;38.25;13.52;;;;;;;;;;4126474;34;20179;-64
2021/04/21 05:29:26;;;;;;;29.27;12.75;;;;;;;;;;4136417;34;20135;-66
2021/04/21 05:32:30;;;;;;;31.85;12.50;;;;;;;;;;4136643;34;20134;-64
2021/04/21 05:35:29;;;;;;;19.10;11.12;;;;;;;;;;4136807;34;20114;-65
2021/04/21 05:38:20;;;;;;;30.08;12.07;;;;;;;;;;4114507;34;20107;-66
2021/04/21 05:41:01;;;;;;;32.47;10.88;;;;;;;;;;4124533;34;20209;-65
2021/04/21 05:43:50;;;;;;;30.95;10.18;;;;;;;;;;4136770;34;20096;-66
2021/04/21 05:46:55;;;;;;;21.08;10.40;;;;;;;;;;4135363;34;20103;-66
2021/04/21 05:49:59;;;;;;;22.50;10.73;;;;;;;;;;4136817;34;20111;-67
2021/04/21 05:53:01;;;;;;;24.37;10.52;;;;;;;;;;4136664;34;20234;-66
2021/04/21 05:56:01;;;;;;;31.95;9.93;;;;;;;;;;4123871;34;20122;-63
2021/04/21 05:58:36;;;;;;;23.17;10.00;;;;;;;;;;4126283;34;20204;-66
2021/04/21 06:01:12;;;;;;;;;;;;;;;;;;4138283;34;20107;-64
2021/04/21 06:03:40;;;;;;;25.02;9.32;;;;;;;;;;4138743;34;19998;-64
2021/04/21 06:06:09;;;;;;;29.87;9.98;;;;;;;;;;4115118;34;20209;-64
2021/04/21 06:08:36;;;;;;;36.45;10.27;;;;;;;;;;4138810;34;20111;-63
2021/04/21 06:11:04;;;;;;;25.88;9.77;;;;;;;;;;4126008;34;20527;-65
2021/04/21 06:13:33;;;;;;;17.98;8.70;;;;;;;;;;4126395;34;20102;-65
2021/04/21 06:15:59;;;;;;;27.25;9.82;;;;;;;;;;4138390;34;20120;-64
2021/04/21 06:18:25;;;;;;;25.48;8.38;;;;;;;;;;4135831;34;20134;-62
2021/04/21 06:20:52;;;;;;;19.50;8.55;;;;;;;;;;4149059;34;20608;-64
2021/04/21 06:23:19;;;;;;;20.58;9.25;;;;;;;;;;4137967;34;20472;-66
2021/04/21 06:26:08;;;;;;;19.42;8.73;;;;;;;;;;4131247;34;20111;-62
2021/04/21 06:28:34;;;;;;;60.60;10.63;;;;;;;;;;4142397;34;20106;-66
2021/04/21 06:31:02;;;;;;;23.55;7.93;;;;;;;;;;4148586;34;20537;-66
2021/04/21 06:33:40;;;;;;;29.52;8.38;;;;;;;;;;4143245;34;20182;-66
2021/04/21 06:36:10;;;;;;;22.77;7.30;;;;;;;;;;4147800;34;20671;-65
2021/04/21 06:38:38;;;;;;;24.23;8.32;;;;;;;;;;4139951;34;20123;-68
2021/04/21 06:41:05;;;;;;;23.30;7.82;;;;;;;;;;4139381;34;20196;-64
2021/04/21 06:43:34;;;;;;;25.30;9.10;;;;;;;;;;4139164;34;20123;-65
2021/04/21 06:46:07;;;;;;;36.90;8.95;;;;;;;;;;4149449;34;20099;-64
2021/04/21 06:48:45;;;;;;;42.33;8.82;;;;;;;;;;4131582;34;20522;-67
2021/04/21 06:51:31;;;;;;;42.47;8.40;;;;;;;;;;4139351;34;20219;-65
2021/04/21 06:53:58;;;;;;;48.58;10.20;;;;;;;;;;4136350;34;20096;-66
2021/04/21 06:56:35;;;;;;;28.95;8.13;;;;;;;;;;4137860;34;20206;-63
2021/04/21 06:59:03;;;;;;;28.42;7.95;;;;;;;;;;4137897;34;20534;-65
2021/04/21 07:01:29;;;;;;;23.23;7.43;;;;;;;;;;4141497;34;20127;-67
2021/04/21 07:04:10;;;;;;;29.73;9.00;;;;;;;;;;4145529;34;20130;-67
2021/04/21 07:06:42;;;;;;;23.67;7.20;;;;;;;;;;4140185;34;20147;-65
2021/04/21 07:09:13;;;;;;;21.92;6.87;;;;;;;;;;4116148;34;20134;-62
2021/04/21 07:11:40;;;;;;;25.50;7.65;;;;;;;;;;4142696;34;20095;-64
2021/04/21 07:14:11;;;;;;;35.85;9.23;;;;;;;;;;4145972;34;20531;-64
2021/04/21 07:16:40;;;;;;;49.78;9.07;;;;;;;;;;4138784;34;20095;-67
2021/04/21 07:19:12;;;;;;;36.75;8.65;;;;;;;;;;4116033;34;20110;-63
2021/04/21 07:21:41;;;;;;;40.42;6.72;;;;;;;;;;4125362;34;20194;-67
2021/04/21 07:24:15;;;;;;;27.30;6.80;;;;;;;;;;4124975;34;20204;-64
2021/04/21 07:26:46;;;;;;;52.58;8.32;;;;;;;;;;4130253;34;20126;-70
2021/04/21 07:29:19;;;;;;;27.33;7.45;;;;;;;;;;4126132;34;20526;-66
2021/04/21 07:31:48;;;;;;;33.15;6.72;;;;;;;;;;4131150;34;20114;-66
2021/04/21 07:34:34;;;;;;;32.55;7.30;;;;;;;;;;4143937;34;20194;-65
2021/04/21 07:37:01;;;;;;;36.78;7.95;;;;;;;;;;4134198;34;20127;-66
2021/04/21 07:39:36;;;;;;;20.58;6.93;;;;;;;;;;4124576;34;20199;-67
2021/04/21 07:42:04;;;;;;;35.95;7.75;;;;;;;;;;4137475;34;20128;-63
2021/04/21 07:44:52;;;;;;;24.50;7.12;;;;;;;;;;4137810;34;20193;-68
2021/04/21 07:47:26;;;;;;;18.10;5.75;;;;;;;;;;4126730;34;20207;-64
2021/04/21 07:49:56;;;;;;;30.30;7.18;;;;;;;;;;4135663;34;20108;-69
2021/04/21 07:52:31;;;;;;;39.38;10.73;;;;;;;;;;4141949;34;20104;-66
2021/04/21 07:55:12;;;;;;;42.35;7.37;;;;;;;;;;4144744;34;20111;-63
2021/04/21 07:57:44;;;;;;;38.65;6.93;;;;;;;;;;4150767;34;20129;-63
2021/04/21 08:00:26;;;;;;;37.40;7.43;;;;;;;;;;4126459;34;20215;-63
2021/04/21 08:02:54;;;;;;;29.98;6.60;;;;;;;;;;4135863;34;20289;-63
2021/04/21 08:05:21;;;;;;;28.87;6.18;;;;;;;;;;4114124;34;20114;-63
2021/04/21 08:07:58;;;;;;;38.70;7.87;;;;;;;;;;4132242;34;20096;-65
2021/04/21 08:10:36;;;;;;;27.52;9.23;;;;;;;;;;4133859;34;20615;-69
2021/04/21 08:13:13;;;;;;;11.25;4.10;;;;;;;;;;4150475;34;20522;-64
2021/04/21 08:15:40;;;;;;;27.17;6.78;;;;;;;;;;4123333;34;20206;-64
2021/04/21 08:18:13;;;;;;;38.40;9.38;;;;;;;;;;4150627;34;20123;-66
2021/04/21 08:20:39;;;;;;;29.42;7.25;;;;;;;;;;4150664;34;20182;-64
2021/04/21 08:23:07;;;;;;;28.27;7.25;;;;;;;;;;4150902;34;20138;-65
2021/04/21 08:25:33;;;;;;;15.82;6.20;;;;;;;;;;4138041;34;20111;-65
2021/04/21 08:27:59;;;;;;;18.92;5.87;;;;;;;;;;4150536;34;20619;-64
2021/04/21 08:30:29;;;;;;;19.15;7.05;;;;;;;;;;4138529;34;20129;-65
2021/04/21 08:32:55;;;;;;;21.80;7.32;;;;;;;;;;4150978;34;20138;-65
2021/04/21 08:35:22;;;;;;;25.55;6.87;;;;;;;;;;4150587;34;20190;-65
2021/04/21 08:37:48;;;;;;;20.60;6.95;;;;;;;;;;4138510;34;20122;-64
2021/04/21 08:40:18;;;;;;;22.70;6.12;;;;;;;;;;4137659;34;20221;-64
2021/04/21 08:42:46;;;;;;;34.70;7.03;;;;;;;;;;4128395;34;20118;-63
2021/04/21 08:45:13;;;;;;;30.30;7.20;;;;;;;;;;4131490;34;20475;-65
2021/04/21 08:47:41;;;;;;;13.43;6.18;;;;;;;;;;4137030;34;20451;-62
2021/04/21 08:50:10;;;;;;;15.10;5.72;;;;;;;;;;4124599;34;20107;-66
2021/04/21 08:52:56;;;;;;;11.68;5.57;;;;;;;;;;4139686;34;20118;-64
2021/04/21 08:55:26;;;;;;;21.67;5.95;;;;;;;;;;4127164;34;20099;-66
2021/04/21 08:57:52;;;;;;;22.35;7.18;;;;;;;;;;4142215;34;20103;-68
2021/04/21 09:00:20;;;;;;;13.20;6.18;;;;;;;;;;4132599;34;20119;-66
2021/04/21 09:03:02;;;;;;;12.15;5.72;;;;;;;;;;4150415;34;20502;-66
2021/04/21 09:05:40;;;;;;;13.20;5.68;;;;;;;;;;4137021;34;20387;-65
2021/04/21 09:08:15;;;;;;;18.23;6.50;;;;;;;;;;4144464;34;20119;-66
2021/04/21 09:10:42;;;;;;;16.45;6.18;;;;;;;;;;4139062;34;20095;-63
2021/04/21 09:13:10;;;;;;;20.80;6.57;;;;;;;;;;4126511;34;20099;-67
2021/04/21 09:15:38;;;;;;;14.77;6.20;;;;;;;;;;4144393;34;20488;-63
2021/04/21 09:18:04;;;;;;;26.05;5.87;;;;;;;;;;4136633;34;20542;-64
2021/04/21 09:20:30;;;;;;;19.55;6.78;;;;;;;;;;4136664;34;20210;-64
2021/04/21 09:23:01;;;;;;;16.27;6.47;;;;;;;;;;4113163;34;20541;-64
2021/04/21 09:25:39;;;;;;;15.80;6.22;;;;;;;;;;4134440;34;20178;-65
2021/04/21 09:28:07;;;;;;;13.88;5.32;;;;;;;;;;4129785;34;20100;-65
2021/04/21 09:30:39;;;;;;;18.58;5.87;;;;;;;;;;4140148;34;20096;-64
2021/04/21 09:33:10;;;;;;;15.95;5.20;;;;;;;;;;4140051;34;20130;-66
2021/04/21 09:38:50;;;;;;;14.55;6.00;;;;;;;;;;4187732;29;20595;-63
2021/04/21 09:41:17;;;;;;;18.62;5.95;;;;;;;;;;4133658;34;20205;-65
2021/04/21 09:43:44;;;;;;;18.87;5.85;;;;;;;;;;4139425;34;20516;-65
2021/04/21 09:46:17;;;;;;;15.10;5.12;;;;;;;;;;4150527;34;20555;-68
2021/04/21 09:48:46;;;;;;;9.98;5.12;;;;;;;;;;4151932;34;20108;-69
2021/04/21 09:51:22;;;;;;;12.40;5.50;;;;;;;;;;4151908;34;20151;-67
2021/04/21 09:53:49;;;;;;;19.80;5.82;;;;;;;;;;4150151;34;20418;-62
2021/04/21 09:56:16;;;;;;;10.57;4.78;;;;;;;;;;4152013;34;20542;-65
2021/04/21 09:58:50;;;;;;;17.10;5.30;;;;;;;;;;4149857;34;20115;-64
2021/04/21 10:01:20;;;;;;;15.23;4.57;;;;;;;;;;4130768;34;20549;-64
2021/04/21 10:03:47;;;;;;;12.88;5.93;;;;;;;;;;4149174;34;20094;-63
2021/04/21 10:06:20;;;;;;;13.55;5.72;;;;;;;;;;4150738;34;20218;-67
2021/04/21 10:08:46;;;;;;;19.17;5.35;;;;;;;;;;4138468;34;20134;-65
2021/04/21 10:11:13;;;;;;;15.80;4.53;;;;;;;;;;4125686;34;20552;-65
2021/04/21 10:13:44;;;;;;;13.43;6.22;;;;;;;;;;4125573;34;20095;-64
2021/04/21 10:16:14;;;;;;;15.00;6.50;;;;;;;;;;4147157;34;20100;-65
2021/04/21 10:18:49;;;;;;;16.65;7.05;;;;;;;;;;4150868;34;20222;-63
2021/04/21 10:21:17;;;;;;;14.10;5.07;;;;;;;;;;4137421;34;20094;-68
2021/04/21 10:23:47;;;;;;;17.42;6.35;;;;;;;;;;4151418;34;20115;-66
2021/04/21 10:26:17;;;;;;;15.75;6.00;;;;;;;;;;4139689;34;20508;-67
2021/04/21 10:28:47;;;;;;;20.00;5.53;;;;;;;;;;4151439;34;20118;-64
2021/04/21 10:31:14;;;;;;;14.40;4.78;;;;;;;;;;4151649;34;20478;-67
2021/04/21 10:33:40;;;;;;;17.62;5.93;;;;;;;;;;4151683;34;20145;-64
2021/04/21 10:36:07;;;;;;;17.25;4.97;;;;;;;;;;4151238;34;20099;-66
2021/04/21 10:38:33;;;;;;;18.62;5.45;;;;;;;;;;4151390;34;20531;-66
2021/04/21 10:41:21;;;;;;;13.93;5.15;;;;;;;;;;4149984;34;20211;-66
2021/04/21 10:44:05;;;;;;;10.38;4.70;;;;;;;;;;4151225;34;20111;-66
2021/04/21 10:47:10;;;;;;;24.70;6.10;;;;;;;;;;4150680;34;20310;-66
2021/04/21 10:49:50;;;;;;;16.17;5.37;;;;;;;;;;4130061;34;20103;-66
2021/04/21 10:52:22;;;;;;;26.65;6.62;;;;;;;;;;4151354;34;20470;-65
2021/04/21 10:54:50;;;;;;;17.05;5.82;;;;;;;;;;4139470;34;20523;-66
2021/04/21 10:57:41;;;;;;;14.90;5.55;;;;;;;;;;4137790;34;20127;-64
2021/04/21 11:00:29;;;;;;;25.05;5.35;;;;;;;;;;4136457;34;20143;-66
2021/04/21 11:02:59;;;;;;;23.90;6.28;;;;;;;;;;4137704;34;20108;-69
2021/04/21 11:05:41;;;;;;;22.48;6.55;;;;;;;;;;4137779;34;20091;-64
2021/04/21 11:08:16;;;;;;;19.12;5.68;;;;;;;;;;4137798;34;20128;-65
2021/04/21 11:11:03;;;;;;;19.27;5.55;;;;;;;;;;4149619;34;20123;-64
2021/04/21 11:13:36;;;;;;;16.10;6.05;;;;;;;;;;4138530;34;20123;-64
2021/04/21 11:16:05;;;;;;;12.35;5.60;;;;;;;;;;4151180;34;20106;-67
2021/04/21 11:18:39;;;;;;;18.90;5.20;;;;;;;;;;4151116;34;20139;-65
2021/04/21 11:21:12;;;;;;;12.40;4.90;;;;;;;;;;4151070;34;20265;-65
2021/04/21 11:23:45;;;;;;;14.98;5.72;;;;;;;;;;4150999;34;20545;-65
2021/04/21 11:26:27;;;;;;;14.35;5.53;;;;;;;;;;4149055;34;20131;-68
2021/04/21 11:29:00;;;;;;;13.65;5.45;;;;;;;;;;4137457;34;20126;-64
2021/04/21 11:31:51;;;;;;;15.13;5.15;;;;;;;;;;4125534;34;20194;-65
2021/04/21 11:34:21;;;;;;;12.93;5.72;;;;;;;;;;4137433;34;20459;-66
2021/04/21 11:36:49;;;;;;;14.77;5.57;;;;;;;;;;4124934;34;20123;-64
2021/04/21 11:39:36;;;;;;;12.23;5.72;;;;;;;;;;4137312;34;20142;-64
2021/04/21 11:42:24;;;;;;;10.73;4.55;;;;;;;;;;4130416;34;20621;-65
2021/04/21 11:44:50;;;;;;;13.15;5.62;;;;;;;;;;4147964;34;20125;-64
2021/04/21 11:47:34;;;;;;;11.10;5.20;;;;;;;;;;4150760;34;20103;-64
2021/04/21 11:50:01;;;;;;;10.68;4.40;;;;;;;;;;4150793;34;20178;-66
2021/04/21 11:53:04;;;;;;;7.68;5.25;;;;;;;;;;4150946;34;20104;-67
2021/04/21 11:55:31;;;;;;;13.68;5.72;;;;;;;;;;4150746;34;20139;-64
2021/04/21 11:57:57;;;;;;;8.70;4.80;;;;;;;;;;4150545;34;20526;-64
2021/04/21 12:00:31;;;;;;;8.10;4.93;;;;;;;;;;4150613;34;20203;-63
2021/04/21 12:02:57;;;;;;;11.73;5.00;;;;;;;;;;4150627;34;20451;-63
2021/04/21 12:05:25;;;;;;;9.00;4.68;;;;;;;;;;4150738;34;20211;-64
2021/04/21 12:07:51;;;;;;;11.73;5.40;;;;;;;;;;4138106;34;20110;-64
2021/04/21 12:10:21;;;;;;;8.43;4.57;;;;;;;;;;4150780;34;20111;-64
2021/04/21 12:12:47;;;;;;;8.15;4.12;;;;;;;;;;4150920;34;20208;-64
2021/04/21 12:15:14;;;;;;;6.90;4.30;;;;;;;;;;4150705;34;20102;-63
2021/04/21 12:17:50;;;;;;;4.87;3.60;;;;;;;;;;4150522;34;20110;-64
2021/04/21 12:20:23;;;;;;;5.87;3.97;;;;;;;;;;4150466;34;20127;-68
2021/04/21 12:22:49;;;;;;;11.23;4.65;;;;;;;;;;4127295;34;20130;-63
2021/04/21 12:25:15;;;;;;;7.07;4.00;;;;;;;;;;4138338;34;20114;-63
2021/04/21 12:27:42;;;;;;;7.25;4.25;;;;;;;;;;4150591;34;20466;-69
2021/04/21 12:30:14;;;;;;;12.02;4.50;;;;;;;;;;4150352;34;20139;-65
2021/04/21 12:32:41;;;;;;;10.88;4.68;;;;;;;;;;4150337;34;20158;-64
2021/04/21 12:35:08;;;;;;;7.55;4.53;;;;;;;;;;4150253;34;20107;-66
2021/04/21 12:37:34;;;;;;;10.68;5.03;;;;;;;;;;4150370;34;20118;-64
2021/04/21 12:40:03;;;;;;;10.80;5.35;;;;;;;;;;4150524;34;20130;-65
2021/04/21 12:42:29;;;;;;;10.15;5.50;;;;;;;;;;4138073;34;20122;-69
2021/04/21 12:44:58;;;;;;;7.62;5.20;;;;;;;;;;4138244;34;20115;-65
2021/04/21 12:47:30;;;;;;;13.40;5.28;;;;;;;;;;4127149;34;20197;-65
2021/04/21 12:50:06;;;;;;;8.63;5.07;;;;;;;;;;4137847;34;20131;-65
2021/04/21 12:52:31;;;;;;;7.25;5.28;;;;;;;;;;4150408;34;20459;-69
2021/04/21 12:54:57;;;;;;;7.97;5.15;;;;;;;;;;4150343;34;20119;-66
2021/04/21 12:57:24;;;;;;;10.90;5.15;;;;;;;;;;4137634;34;20134;-65
2021/04/21 12:59:55;;;;;;;10.40;5.37;;;;;;;;;;4150138;34;20459;-68
2021/04/21 13:02:48;;;;;;;9.23;5.00;;;;;;;;;;4150289;34;20098;-65
2021/04/21 13:05:15;;;;;;;20.08;6.18;;;;;;;;;;4150276;34;20581;-64
2021/04/21 13:07:42;;;;;;;17.65;6.43;;;;;;;;;;4137488;34;20529;-62
2021/04/21 13:10:10;;;;;;;9.07;4.97;;;;;;;;;;4127078;34;20190;-63
2021/04/21 13:12:36;;;;;;;9.35;5.35;;;;;;;;;;4152316;34;20131;-66
2021/04/21 13:15:16;;;;;;;8.88;5.25;;;;;;;;;;4139397;34;20138;-66
2021/04/21 13:17:56;;;;;;;11.15;4.47;;;;;;;;;;4139591;34;20233;-64
2021/04/21 13:20:43;;;;;;;11.20;5.00;;;;;;;;;;4139578;34;20473;-65
2021/04/21 13:23:19;;;;;;;11.10;5.20;;;;;;;;;;4149305;34;20203;-70
2021/04/21 13:26:15;;;;;;;10.65;4.95;;;;;;;;;;4139592;34;20507;-67
2021/04/21 13:28:42;;;;;;;11.88;5.12;;;;;;;;;;4150851;34;20214;-66
2021/04/21 13:31:16;;;;;;;10.13;4.55;;;;;;;;;;4151939;34;20115;-66
2021/04/21 13:33:43;;;;;;;8.48;4.57;;;;;;;;;;4139487;34;20103;-66
2021/04/21 13:36:10;;;;;;;10.90;4.22;;;;;;;;;;4151641;34;20202;-69
2021/04/21 13:38:40;;;;;;;6.50;3.17;;;;;;;;;;4150936;34;20098;-68
2021/04/21 13:41:09;;;;;;;10.52;6.45;;;;;;;;;;4140427;34;20102;-65
2021/04/21 13:43:36;;;;;;;9.55;4.62;;;;;;;;;;4139921;34;20167;-64
2021/04/21 13:46:04;;;;;;;7.75;3.83;;;;;;;;;;4139318;34;20111;-69
2021/04/21 13:48:34;;;;;;;7.30;3.22;;;;;;;;;;4152272;34;20110;-67
2021/04/21 13:51:10;;;;;;;7.70;3.30;;;;;;;;;;4151615;34;20095;-64
2021/04/21 13:54:05;;;;;;;6.90;3.92;;;;;;;;;;4145700;34;20288;-65
2021/04/21 13:56:39;;;;;;;9.15;4.03;;;;;;;;;;4151436;34;20108;-63
2021/04/21 13:59:17;;;;;;;7.87;4.85;;;;;;;;;;4139757;34;20126;-66
2021/04/21 14:01:52;;;;;;;8.82;4.43;;;;;;;;;;4151808;34;20201;-66
2021/04/21 14:04:24;;;;;;;9.40;4.12;;;;;;;;;;4139114;34;20207;-65
2021/04/21 14:06:56;;;;;;;9.32;3.83;;;;;;;;;;4151855;34;20200;-66
2021/04/21 14:09:22;;;;;;;7.93;3.92;;;;;;;;;;4151895;34;20219;-67
2021/04/21 14:11:48;;;;;;;8.00;4.28;;;;;;;;;;4136625;34;20096;-62
2021/04/21 14:14:14;;;;;;;8.85;3.97;;;;;;;;;;4136994;34;20523;-62
2021/04/21 14:16:40;;;;;;;9.77;3.58;;;;;;;;;;4144414;34;20110;-64
2021/04/21 14:19:07;;;;;;;6.43;3.72;;;;;;;;;;4151695;34;20550;-66
2021/04/21 14:21:34;;;;;;;7.70;4.43;;;;;;;;;;4151462;34;20598;-64
2021/04/21 14:24:03;;;;;;;9.18;4.18;;;;;;;;;;4151619;34;20115;-64
2021/04/21 14:26:29;;;;;;;8.05;4.62;;;;;;;;;;4151467;34;20119;-63
2021/04/21 14:28:55;;;;;;;8.77;4.53;;;;;;;;;;4151752;34;20119;-65
2021/04/21 14:31:23;;;;;;;10.32;4.37;;;;;;;;;;4151750;34;20146;-66
2021/04/21 14:33:53;;;;;;;9.23;4.45;;;;;;;;;;4151691;34;20206;-67
2021/04/21 14:36:20;;;;;;;6.12;4.18;;;;;;;;;;4151392;34;20157;-64
2021/04/21 14:38:46;;;;;;;9.43;4.35;;;;;;;;;;4151185;34;20103;-64
2021/04/21 14:41:12;;;;;;;17.40;7.28;;;;;;;;;;4151349;34;20510;-65
2021/04/21 14:43:38;;;;;;;5.78;3.60;;;;;;;;;;4151345;34;20127;-64
2021/04/21 14:46:04;;;;;;;6.97;3.80;;;;;;;;;;4151448;34;20133;-65
2021/04/21 14:48:30;;;;;;;8.45;3.90;;;;;;;;;;4149939;34;20543;-65
2021/04/21 14:50:56;;;;;;;8.00;4.18;;;;;;;;;;4151194;34;20195;-64
2021/04/21 14:53:22;;;;;;;7.68;3.78;;;;;;;;;;4151389;34;20134;-68
2021/04/21 14:55:49;;;;;;;7.22;3.55;;;;;;;;;;4138942;34;20230;-65
2021/04/21 14:58:15;;;;;;;8.73;4.22;;;;;;;;;;4138812;34;20111;-66
2021/04/21 15:00:43;;;;;;;5.75;3.72;;;;;;;;;;4151584;34;20100;-68
2021/04/21 15:03:09;;;;;;;3.33;2.62;;;;;;;;;;4151484;34;20113;-60
2021/04/21 15:05:36;;;;;;;8.32;3.83;;;;;;;;;;4151614;34;20182;-63
2021/04/21 15:08:02;;;;;;;10.63;3.95;;;;;;;;;;4151327;34;20182;-62
2021/04/21 15:10:28;;;;;;;7.37;3.90;;;;;;;;;;4151112;34;20210;-62
2021/04/21 15:12:54;;;;;;;6.80;3.75;;;;;;;;;;4151082;34;20126;-63
2021/04/21 15:15:21;;;;;;;7.20;3.22;;;;;;;;;;4138499;34;20111;-63
2021/04/21 15:17:48;;;;;;;7.30;4.12;;;;;;;;;;4150771;34;20107;-62
2021/04/21 15:20:16;;;;;;;12.80;3.90;;;;;;;;;;4138444;34;20099;-64
2021/04/21 15:22:42;;;;;;;7.05;3.35;;;;;;;;;;4127132;34;20146;-64
2021/04/21 15:25:13;;;;;;;6.03;3.85;;;;;;;;;;4151080;34;20551;-62
2021/04/21 15:27:39;;;;;;;6.62;3.53;;;;;;;;;;4164510;34;20115;-65
2021/04/21 15:30:08;;;;;;;7.18;4.18;;;;;;;;;;4152397;34;20213;-66
2021/04/21 15:32:39;;;;;;;8.38;4.32;;;;;;;;;;4161314;34;20206;-65
2021/04/21 15:35:08;;;;;;;5.80;3.65;;;;;;;;;;4135717;34;20108;-66
2021/04/21 15:37:35;;;;;;;8.98;3.60;;;;;;;;;;4142685;34;20119;-63
2021/04/21 15:40:04;;;;;;;6.18;3.90;;;;;;;;;;4151164;34;20154;-63
2021/04/21 15:42:31;;;;;;;6.60;3.85;;;;;;;;;;4138005;34;20107;-65
2021/04/21 15:44:57;;;;;;;4.15;3.03;;;;;;;;;;4138356;34;20087;-66
2021/04/21 15:47:23;;;;;;;5.90;3.28;;;;;;;;;;4151006;34;20119;-65